createdAt,value
2023-04-02T00:00:57.126Z,81.09
2023-04-02T00:01:57.122Z,81.46
2023-04-02T00:02:57.197Z,81.56
2023-04-02T00:03:57.073Z,81.56
2023-04-02T00:04:57.067Z,81.25
2023-04-02T00:05:57.052Z,81.60
2023-04-02T00:06:57.065Z,81.35
2023-04-02T00:07:57.028Z,81.35
2023-04-02T00:08:57.017Z,82.01
2023-04-02T00:09:57.160Z,82.59
2023-04-02T00:10:57.054Z,83.04
2023-04-02T00:11:56.992Z,83.65
2023-04-02T00:12:56.980Z,84.17
2023-04-02T00:13:56.958Z,83.45
2023-04-02T00:14:56.963Z,82.83
2023-04-02T00:15:57.004Z,83.25
2023-04-02T00:16:56.950Z,84.17
2023-04-02T00:17:56.925Z,84.27
2023-04-02T00:18:56.926Z,84.52
2023-04-02T00:19:56.898Z,84.62
2023-04-02T00:20:56.911Z,84.21
2023-04-02T00:21:56.872Z,84.31
2023-04-02T00:22:56.889Z,84.00
2023-04-02T00:23:56.861Z,84.11
2023-04-02T00:24:56.852Z,83.90
2023-04-02T00:25:56.840Z,84.21
2023-04-02T00:26:56.845Z,84.21
2023-04-02T00:27:56.820Z,83.28
2023-04-02T00:28:56.809Z,83.18
2023-04-02T00:29:56.813Z,83.55
2023-04-02T00:30:56.802Z,83.55
2023-04-02T00:31:56.802Z,84.38
2023-04-02T00:32:56.794Z,83.70
2023-04-02T00:33:56.751Z,84.21
2023-04-02T00:34:56.760Z,83.80
2023-04-02T00:35:56.736Z,83.18
2023-04-02T00:36:56.752Z,83.80
2023-04-02T00:37:56.747Z,83.18
2023-04-02T00:38:56.705Z,83.39
2023-04-02T00:39:56.681Z,83.49
2023-04-02T00:40:56.699Z,82.56
2023-04-02T00:41:56.669Z,82.83
2023-04-02T00:42:56.675Z,83.59
2023-04-02T00:43:56.659Z,83.90
2023-04-02T00:44:56.644Z,83.90
2023-04-02T00:45:56.712Z,83.70
2023-04-02T00:46:56.620Z,83.59
2023-04-02T00:47:56.601Z,83.90
2023-04-02T00:48:56.608Z,84.11
2023-04-02T00:49:56.580Z,83.49
2023-04-02T00:50:56.576Z,83.49
2023-04-02T00:51:56.555Z,83.49
2023-04-02T00:52:56.550Z,83.80
2023-04-02T00:53:56.539Z,83.90
2023-04-02T00:54:56.533Z,84.00
2023-04-02T00:55:56.512Z,84.21
2023-04-02T00:56:56.675Z,83.90
2023-04-02T00:57:56.486Z,84.21
2023-04-02T00:58:56.482Z,84.11
2023-04-02T00:59:56.481Z,84.31
2023-04-02T01:00:56.519Z,84.00
2023-04-02T01:01:56.452Z,84.00
2023-04-02T01:02:56.462Z,84.31
2023-04-02T01:03:56.426Z,84.31
2023-04-02T01:04:56.418Z,84.42
2023-04-02T01:05:56.435Z,84.42
2023-04-02T01:06:56.423Z,84.31
2023-04-02T01:07:56.374Z,84.83
2023-04-02T01:08:56.379Z,84.42
2023-04-02T01:09:56.367Z,84.11
2023-04-02T01:10:56.353Z,84.42
2023-04-02T01:11:56.332Z,84.93
2023-04-02T01:12:56.343Z,85.44
2023-04-02T01:13:56.316Z,85.59
2023-04-02T01:14:56.321Z,85.49
2023-04-02T01:15:56.357Z,85.69
2023-04-02T01:16:56.301Z,85.59
2023-04-02T01:17:56.362Z,85.59
2023-04-02T01:18:56.256Z,85.69
2023-04-02T01:19:56.260Z,85.69
2023-04-02T01:20:56.238Z,85.69
2023-04-02T01:21:57.070Z,86.31
2023-04-02T01:22:56.219Z,85.79
2023-04-02T01:23:56.207Z,86.00
2023-04-02T01:24:56.194Z,86.10
2023-04-02T01:25:56.398Z,85.69
2023-04-02T01:26:56.165Z,85.79
2023-04-02T01:27:56.186Z,85.59
2023-04-02T01:28:56.147Z,85.89
2023-04-02T01:29:56.157Z,85.38
2023-04-02T01:30:56.174Z,85.79
2023-04-02T01:31:56.128Z,86.10
2023-04-02T01:32:56.173Z,86.61
2023-04-02T01:33:56.107Z,86.82
2023-04-02T01:34:56.088Z,86.82
2023-04-02T01:35:56.110Z,87.03
2023-04-02T01:36:56.058Z,88.10
2023-04-02T01:37:56.130Z,88.10
2023-04-02T01:38:56.060Z,87.90
2023-04-02T01:39:56.063Z,87.90
2023-04-02T01:40:56.018Z,88.31
2023-04-02T01:41:56.026Z,88.92
2023-04-02T01:42:55.998Z,89.23
2023-04-02T01:43:56.002Z,88.82
2023-04-02T01:44:55.987Z,89.79
2023-04-02T01:45:55.978Z,89.07
2023-04-02T01:46:55.987Z,88.24
2023-04-02T01:47:55.970Z,87.79
2023-04-02T01:48:55.938Z,88.31
2023-04-02T01:49:55.942Z,88.51
2023-04-02T01:50:55.915Z,88.82
2023-04-02T01:51:55.907Z,89.79
2023-04-02T01:52:55.883Z,90.00
2023-04-02T01:53:55.894Z,90.31
2023-04-02T01:54:55.867Z,90.20
2023-04-02T01:55:55.916Z,90.72
2023-04-02T01:56:55.876Z,90.55
2023-04-02T01:57:55.847Z,88.90
2023-04-02T01:58:55.831Z,89.01
2023-04-02T01:59:55.824Z,89.42
2023-04-02T02:00:55.843Z,89.52
2023-04-02T02:01:55.820Z,90.97
2023-04-02T02:02:55.800Z,92.31
2023-04-02T02:03:55.779Z,91.69
2023-04-02T02:04:55.789Z,91.48
2023-04-02T02:05:55.771Z,91.63
2023-04-02T02:06:55.742Z,91.73
2023-04-02T02:07:55.756Z,91.42
2023-04-02T02:08:55.726Z,91.32
2023-04-02T02:09:55.721Z,91.94
2023-04-02T02:10:55.698Z,92.46
2023-04-02T02:11:55.698Z,92.35
2023-04-02T02:12:55.675Z,92.66
2023-04-02T02:13:55.696Z,92.97
2023-04-02T02:14:55.689Z,92.35
2023-04-02T02:15:55.712Z,92.25
2023-04-02T02:16:55.640Z,92.35
2023-04-02T02:17:55.651Z,92.76
2023-04-02T02:18:55.618Z,93.28
2023-04-02T02:19:55.630Z,93.18
2023-04-02T02:20:55.588Z,92.35
2023-04-02T02:21:55.588Z,91.63
2023-04-02T02:22:55.569Z,91.11
2023-04-02T02:23:55.591Z,91.01
2023-04-02T02:24:55.554Z,91.01
2023-04-02T02:25:55.556Z,90.80
2023-04-02T02:26:55.526Z,90.14
2023-04-02T02:27:55.533Z,89.62
2023-04-02T02:28:55.520Z,89.94
2023-04-02T02:29:55.535Z,90.25
2023-04-02T02:30:56.300Z,90.14
2023-04-02T02:31:55.520Z,90.14
2023-04-02T02:32:55.502Z,90.35
2023-04-02T02:33:55.464Z,88.90
2023-04-02T02:34:55.443Z,89.01
2023-04-02T02:35:55.500Z,88.35
2023-04-02T02:36:55.427Z,88.56
2023-04-02T02:37:55.435Z,88.14
2023-04-02T02:38:55.399Z,87.32
2023-04-02T02:39:55.449Z,87.07
2023-04-02T02:40:55.390Z,86.87
2023-04-02T02:41:55.385Z,86.87
2023-04-02T02:42:55.356Z,86.66
2023-04-02T02:43:55.355Z,86.55
2023-04-02T02:44:55.341Z,87.27
2023-04-02T02:45:55.358Z,87.17
2023-04-02T02:46:55.322Z,86.45
2023-04-02T02:47:55.386Z,85.73
2023-04-02T02:48:55.297Z,86.15
2023-04-02T02:49:55.292Z,86.04
2023-04-02T02:50:55.271Z,86.04
2023-04-02T02:51:56.075Z,85.63
2023-04-02T02:52:55.258Z,85.42
2023-04-02T02:53:55.251Z,85.52
2023-04-02T02:54:55.229Z,85.94
2023-04-02T02:55:56.041Z,85.63
2023-04-02T02:56:55.240Z,85.63
2023-04-02T02:57:55.220Z,86.04
2023-04-02T02:58:55.200Z,85.73
2023-04-02T02:59:55.186Z,85.94
2023-04-02T03:00:55.164Z,86.35
2023-04-02T03:01:55.160Z,86.35
2023-04-02T03:02:55.245Z,86.55
2023-04-02T03:03:55.405Z,87.07
2023-04-02T03:04:55.136Z,87.07
2023-04-02T03:05:55.133Z,86.45
2023-04-02T03:06:55.915Z,86.66
2023-04-02T03:07:55.117Z,87.07
2023-04-02T03:08:55.075Z,86.97
2023-04-02T03:09:55.098Z,86.97
2023-04-02T03:10:55.052Z,86.97
2023-04-02T03:11:55.052Z,86.87
2023-04-02T03:12:55.031Z,86.76
2023-04-02T03:13:55.047Z,87.27
2023-04-02T03:14:55.020Z,87.21
2023-04-02T03:15:55.049Z,87.11
2023-04-02T03:16:54.990Z,87.21
2023-04-02T03:17:55.070Z,87.52
2023-04-02T03:18:54.980Z,87.73
2023-04-02T03:19:55.008Z,87.63
2023-04-02T03:20:54.951Z,87.21
2023-04-02T03:21:55.037Z,87.32
2023-04-02T03:22:54.932Z,87.42
2023-04-02T03:23:54.923Z,87.21
2023-04-02T03:24:54.912Z,87.42
2023-04-02T03:25:55.692Z,87.42
2023-04-02T03:26:54.880Z,87.63
2023-04-02T03:27:54.889Z,87.63
2023-04-02T03:28:54.858Z,87.83
2023-04-02T03:29:55.673Z,87.73
2023-04-02T03:30:54.870Z,87.83
2023-04-02T03:31:54.849Z,88.14
2023-04-02T03:32:54.879Z,88.24
2023-04-02T03:33:54.832Z,87.93
2023-04-02T03:34:54.817Z,88.14
2023-04-02T03:35:54.833Z,88.65
2023-04-02T03:36:54.798Z,88.65
2023-04-02T03:37:54.780Z,88.65
2023-04-02T03:38:54.760Z,88.86
2023-04-02T03:39:54.776Z,88.35
2023-04-02T03:40:54.736Z,88.56
2023-04-02T03:41:54.730Z,88.24
2023-04-02T03:42:54.758Z,88.35
2023-04-02T03:43:54.721Z,88.35
2023-04-02T03:44:54.700Z,88.35
2023-04-02T03:45:54.683Z,88.76
2023-04-02T03:46:54.701Z,88.35
2023-04-02T03:47:54.702Z,88.56
2023-04-02T03:48:54.895Z,88.65
2023-04-02T03:49:54.644Z,88.76
2023-04-02T03:50:54.624Z,88.96
2023-04-02T03:51:54.630Z,88.86
2023-04-02T03:52:54.628Z,89.01
2023-04-02T03:53:54.602Z,88.90
2023-04-02T03:54:54.726Z,89.11
2023-04-02T03:55:54.579Z,88.59
2023-04-02T03:56:54.684Z,88.70
2023-04-02T03:57:54.583Z,88.59
2023-04-02T03:58:54.557Z,88.49
2023-04-02T03:59:54.556Z,88.84
2023-04-02T04:00:54.531Z,89.15
2023-04-02T04:01:54.547Z,89.67
2023-04-02T04:02:54.579Z,90.19
2023-04-02T04:03:54.534Z,90.53
2023-04-02T04:04:54.501Z,90.74
2023-04-02T04:05:54.494Z,90.95
2023-04-02T04:06:54.452Z,91.36
2023-04-02T04:07:54.482Z,91.88
2023-04-02T04:08:54.436Z,92.23
2023-04-02T04:09:54.439Z,92.44
2023-04-02T04:10:55.304Z,92.33
2023-04-02T04:11:54.423Z,92.44
2023-04-02T04:12:54.412Z,92.68
2023-04-02T04:13:54.392Z,92.58
2023-04-02T04:14:54.374Z,92.48
2023-04-02T04:15:54.421Z,92.58
2023-04-02T04:16:54.537Z,92.68
2023-04-02T04:17:54.373Z,92.72
2023-04-02T04:18:54.349Z,92.72
2023-04-02T04:19:54.334Z,92.83
2023-04-02T04:20:54.306Z,92.93
2023-04-02T04:21:54.311Z,93.24
2023-04-02T04:22:54.292Z,93.39
2023-04-02T04:23:54.281Z,93.18
2023-04-02T04:24:54.278Z,93.33
2023-04-02T04:25:54.262Z,93.23
2023-04-02T04:26:54.254Z,93.64
2023-04-02T04:27:54.242Z,94.72
2023-04-02T04:28:54.224Z,95.14
2023-04-02T04:29:54.247Z,94.93
2023-04-02T04:30:54.202Z,94.97
2023-04-02T04:31:54.255Z,94.87
2023-04-02T04:32:54.189Z,94.97
2023-04-02T04:33:54.188Z,94.97
2023-04-02T04:34:54.178Z,95.12
2023-04-02T04:35:54.215Z,95.53
2023-04-02T04:36:54.574Z,96.15
2023-04-02T04:37:54.376Z,96.36
2023-04-02T04:38:54.111Z,96.47
2023-04-02T04:39:54.121Z,96.36
2023-04-02T04:40:54.296Z,96.26
2023-04-02T04:41:54.091Z,96.15
2023-04-02T04:42:54.076Z,96.47
2023-04-02T04:43:54.076Z,96.88
2023-04-02T04:44:54.062Z,97.19
2023-04-02T04:45:54.102Z,97.29
2023-04-02T04:46:54.052Z,97.39
2023-04-02T04:47:54.077Z,97.39
2023-04-02T04:48:54.004Z,97.29
2023-04-02T04:49:54.010Z,97.29
2023-04-02T04:50:54.018Z,97.39
2023-04-02T04:51:54.025Z,97.39
2023-04-02T04:52:53.984Z,97.34
2023-04-02T04:53:53.964Z,97.44
2023-04-02T04:54:53.944Z,97.65
2023-04-02T04:55:54.765Z,97.65
2023-04-02T04:56:53.965Z,97.65
2023-04-02T04:57:53.936Z,97.65
2023-04-02T04:58:53.920Z,97.75
2023-04-02T04:59:54.054Z,97.75
2023-04-02T05:00:53.896Z,97.86
2023-04-02T05:01:53.927Z,97.90
2023-04-02T05:02:53.907Z,97.90
2023-04-02T05:03:54.032Z,98.11
2023-04-02T05:04:53.857Z,98.52
2023-04-02T05:05:53.836Z,98.73
2023-04-02T05:06:53.826Z,98.73
2023-04-02T05:07:53.821Z,98.83
2023-04-02T05:08:53.816Z,99.00
2023-04-02T05:09:53.800Z,99.00
2023-04-02T05:10:53.785Z,99.00
2023-04-02T05:11:53.782Z,99.10
2023-04-02T05:12:53.758Z,99.15
2023-04-02T05:13:53.760Z,99.21
2023-04-02T05:14:53.770Z,99.21
2023-04-02T05:15:53.798Z,99.31
2023-04-02T05:16:53.710Z,99.52
2023-04-02T05:17:53.874Z,99.52
2023-04-02T05:18:53.717Z,99.93
2023-04-02T05:19:53.692Z,99.99
2023-04-02T05:20:53.688Z,99.99
2023-04-02T05:21:53.673Z,99.99
2023-04-02T05:22:53.653Z,99.78
2023-04-02T05:23:53.650Z,99.68
2023-04-02T05:24:53.643Z,99.37
2023-04-02T05:25:53.632Z,99.11
2023-04-02T05:26:53.666Z,98.91
2023-04-02T05:27:53.624Z,98.70
2023-04-02T05:28:53.597Z,98.70
2023-04-02T05:29:53.588Z,98.75
2023-04-02T05:30:53.589Z,98.96
2023-04-02T05:31:53.564Z,98.96
2023-04-02T05:32:53.603Z,98.96
2023-04-02T05:33:53.533Z,99.07
2023-04-02T05:34:53.536Z,99.43
2023-04-02T05:35:53.618Z,99.33
2023-04-02T05:36:53.513Z,99.18
2023-04-02T05:37:53.529Z,98.25
2023-04-02T05:38:53.532Z,97.28
2023-04-02T05:39:53.484Z,96.76
2023-04-02T05:40:53.472Z,96.76
2023-04-02T05:41:53.454Z,95.99
2023-04-02T05:42:53.454Z,95.78
2023-04-02T05:43:53.439Z,95.78
2023-04-02T05:44:53.436Z,95.27
2023-04-02T05:45:53.426Z,95.27
2023-04-02T05:46:53.503Z,95.27
2023-04-02T05:47:53.467Z,95.27
2023-04-02T05:48:53.392Z,95.37
2023-04-02T05:49:53.388Z,95.48
2023-04-02T05:50:53.376Z,95.57
2023-04-02T05:51:53.348Z,95.57
2023-04-02T05:52:53.353Z,95.48
2023-04-02T05:53:53.336Z,95.37
2023-04-02T05:54:53.339Z,95.32
2023-04-02T05:55:53.362Z,95.43
2023-04-02T05:56:53.388Z,95.53
2023-04-02T05:58:13.626Z,95.43
2023-04-02T05:58:54.352Z,95.22
2023-04-02T05:59:53.265Z,95.22
2023-04-02T06:00:53.274Z,95.12
2023-04-02T06:01:53.270Z,95.32
2023-04-02T06:02:53.301Z,95.28
2023-04-02T06:03:53.312Z,95.28
2023-04-02T06:04:53.225Z,95.18
2023-04-02T06:05:53.212Z,94.97
2023-04-02T06:06:53.203Z,94.82
2023-04-02T06:07:53.190Z,94.62
2023-04-02T06:08:53.182Z,94.52
2023-04-02T06:09:53.167Z,94.42
2023-04-02T06:10:53.156Z,94.31
2023-04-02T06:11:53.139Z,93.44
2023-04-02T06:12:53.173Z,92.82
2023-04-02T06:13:54.614Z,93.03
2023-04-02T06:14:53.126Z,92.72
2023-04-02T06:15:53.096Z,92.88
2023-04-02T06:16:53.177Z,92.68
2023-04-02T06:17:53.103Z,92.68
2023-04-02T06:18:53.072Z,92.33
2023-04-02T06:19:53.076Z,92.33
2023-04-02T06:20:53.111Z,92.22
2023-04-02T06:21:53.035Z,92.02
2023-04-02T06:22:53.302Z,90.64
2023-04-02T06:23:53.018Z,90.01
2023-04-02T06:24:53.020Z,89.61
2023-04-02T06:25:54.004Z,90.12
2023-04-02T06:26:52.998Z,89.61
2023-04-02T06:27:52.985Z,89.36
2023-04-02T06:28:52.978Z,89.15
2023-04-02T06:29:52.982Z,89.15
2023-04-02T06:30:53.001Z,88.08
2023-04-02T06:31:52.947Z,87.98
2023-04-02T06:32:52.993Z,86.95
2023-04-02T06:33:52.907Z,87.05
2023-04-02T06:34:52.907Z,86.95
2023-04-02T06:35:52.904Z,86.91
2023-04-02T06:36:52.895Z,87.22
2023-04-02T06:37:52.865Z,87.73
2023-04-02T06:38:52.856Z,87.01
2023-04-02T06:39:52.860Z,86.50
2023-04-02T06:40:52.838Z,86.60
2023-04-02T06:41:52.831Z,86.46
2023-04-02T06:42:52.821Z,85.63
2023-04-02T06:43:52.801Z,85.33
2023-04-02T06:44:52.798Z,84.88
2023-04-02T06:45:52.888Z,84.16
2023-04-02T06:46:52.890Z,84.16
2023-04-02T06:47:52.787Z,84.36
2023-04-02T06:48:52.760Z,83.81
2023-04-02T06:49:53.196Z,83.70
2023-04-02T06:50:52.736Z,84.84
2023-04-02T06:51:52.715Z,84.12
2023-04-02T06:52:52.713Z,83.70
2023-04-02T06:53:52.690Z,84.53
2023-04-02T06:54:52.765Z,84.42
2023-04-02T06:55:52.692Z,84.22
2023-04-02T06:56:52.810Z,84.42
2023-04-02T06:57:53.028Z,85.46
2023-04-02T06:58:52.656Z,85.04
2023-04-02T06:59:52.636Z,85.04
2023-04-02T07:00:52.632Z,85.25
2023-04-02T07:01:52.725Z,85.76
2023-04-02T07:02:52.636Z,86.42
2023-04-02T07:03:52.588Z,86.68
2023-04-02T07:04:52.633Z,85.55
2023-04-02T07:05:52.565Z,86.38
2023-04-02T07:06:52.580Z,86.79
2023-04-02T07:07:52.547Z,86.44
2023-04-02T07:08:52.540Z,85.82
2023-04-02T07:09:52.522Z,85.35
2023-04-02T07:10:52.566Z,84.39
2023-04-02T07:11:52.505Z,84.32
2023-04-02T07:12:52.516Z,85.86
2023-04-02T07:13:52.480Z,85.72
2023-04-02T07:14:52.472Z,85.55
2023-04-02T07:15:52.523Z,85.72
2023-04-02T07:16:52.446Z,85.72
2023-04-02T07:17:52.510Z,85.38
2023-04-02T07:18:53.038Z,84.66
2023-04-02T07:19:52.417Z,84.25
2023-04-02T07:20:52.621Z,83.63
2023-04-02T07:21:52.388Z,83.63
2023-04-02T07:22:52.390Z,84.25
2023-04-02T07:23:52.368Z,84.00
2023-04-02T07:24:52.367Z,82.15
2023-04-02T07:25:52.367Z,82.15
2023-04-02T07:26:52.345Z,80.58
2023-04-02T07:27:52.320Z,79.55
2023-04-02T07:28:52.341Z,79.66
2023-04-02T07:29:53.128Z,80.17
2023-04-02T07:30:52.307Z,80.13
2023-04-02T07:31:52.411Z,81.91
2023-04-02T07:32:52.351Z,79.41
2023-04-02T07:33:52.281Z,79.21
2023-04-02T07:34:52.268Z,80.19
2023-04-02T07:35:52.276Z,79.27
2023-04-02T07:36:52.241Z,78.93
2023-04-02T07:37:52.230Z,79.03
2023-04-02T07:38:52.442Z,77.29
2023-04-02T07:39:52.267Z,77.46
2023-04-02T07:40:52.201Z,77.46
2023-04-02T07:41:52.185Z,75.79
2023-04-02T07:42:52.200Z,75.07
2023-04-02T07:43:52.163Z,73.98
2023-04-02T07:44:52.160Z,75.48
2023-04-02T07:45:52.126Z,76.34
2023-04-02T07:46:52.206Z,76.09
2023-04-02T07:47:52.115Z,74.97
2023-04-02T07:48:52.119Z,72.17
2023-04-02T07:49:52.096Z,72.89
2023-04-02T07:50:52.082Z,71.05
2023-04-02T07:51:52.091Z,69.62
2023-04-02T07:52:52.067Z,71.77
2023-04-02T07:53:52.057Z,70.23
2023-04-02T07:54:52.058Z,72.79
2023-04-02T07:55:52.016Z,70.95
2023-04-02T07:56:52.070Z,70.61
2023-04-02T07:57:51.997Z,71.33
2023-04-02T07:58:51.996Z,71.73
2023-04-02T07:59:51.992Z,69.59
2023-04-02T08:00:51.985Z,69.86
2023-04-02T08:01:52.217Z,71.15
2023-04-02T08:02:52.044Z,70.40
2023-04-02T08:03:54.296Z,69.69
2023-04-02T08:04:51.933Z,69.76
2023-04-02T08:05:51.958Z,68.61
2023-04-02T08:06:51.917Z,66.77
2023-04-02T08:07:51.922Z,67.79
2023-04-02T08:08:51.914Z,67.90
2023-04-02T08:09:51.874Z,66.06
2023-04-02T08:10:51.869Z,68.13
2023-04-02T08:11:51.856Z,67.18
2023-04-02T08:12:51.861Z,67.86
2023-04-02T08:13:51.849Z,67.69
2023-04-02T08:14:51.832Z,67.46
2023-04-02T08:15:51.805Z,67.02
2023-04-02T08:16:51.929Z,65.50
2023-04-02T08:17:51.869Z,64.76
2023-04-02T08:18:51.781Z,64.32
2023-04-02T08:19:55.109Z,66.69
2023-04-02T08:20:51.763Z,66.69
2023-04-02T08:21:51.763Z,65.97
2023-04-02T08:22:51.742Z,64.76
2023-04-02T08:23:51.746Z,62.55
2023-04-02T08:24:51.730Z,61.69
2023-04-02T08:25:51.817Z,62.71
2023-04-02T08:26:51.744Z,63.28
2023-04-02T08:27:51.674Z,64.40
2023-04-02T08:28:51.696Z,63.79
2023-04-02T08:29:51.673Z,64.50
2023-04-02T08:30:51.699Z,64.47
2023-04-02T08:31:51.655Z,65.66
2023-04-02T08:32:51.698Z,64.72
2023-04-02T08:33:51.631Z,62.68
2023-04-02T08:34:51.745Z,62.78
2023-04-02T08:35:51.663Z,64.18
2023-04-02T08:36:51.606Z,64.48
2023-04-02T08:37:51.564Z,62.04
2023-04-02T08:38:51.577Z,59.67
2023-04-02T08:39:51.552Z,60.79
2023-04-02T08:40:51.554Z,60.59
2023-04-02T08:41:51.524Z,61.17
2023-04-02T08:42:51.524Z,63.28
2023-04-02T08:43:51.510Z,60.25
2023-04-02T08:44:51.512Z,61.17
2023-04-02T08:45:51.550Z,60.31
2023-04-02T08:46:52.307Z,62.17
2023-04-02T08:47:51.514Z,64.14
2023-04-02T08:48:51.463Z,64.64
2023-04-02T08:49:51.447Z,63.12
2023-04-02T08:50:51.451Z,63.19
2023-04-02T08:51:51.417Z,64.20
2023-04-02T08:52:51.415Z,63.16
2023-04-02T08:53:51.391Z,62.72
2023-04-02T08:54:51.396Z,63.46
2023-04-02T08:55:51.432Z,63.13
2023-04-02T08:56:51.392Z,61.47
2023-04-02T08:57:51.646Z,60.56
2023-04-02T08:58:51.362Z,61.27
2023-04-02T08:59:51.321Z,60.76
2023-04-02T09:00:51.330Z,60.43
2023-04-02T09:01:51.356Z,61.07
2023-04-02T09:02:51.316Z,61.53
2023-04-02T09:03:51.282Z,63.54
2023-04-02T09:04:51.323Z,62.59
2023-04-02T09:05:51.268Z,63.00
2023-04-02T09:06:51.310Z,60.66
2023-04-02T09:07:51.243Z,62.39
2023-04-02T09:08:51.239Z,62.66
2023-04-02T09:09:51.223Z,62.16
2023-04-02T09:10:51.236Z,61.82
2023-04-02T09:11:51.195Z,59.16
2023-04-02T09:12:51.200Z,57.73
2023-04-02T09:13:51.176Z,59.69
2023-04-02T09:14:51.187Z,61.49
2023-04-02T09:15:51.175Z,59.03
2023-04-02T09:16:51.152Z,58.14
2023-04-02T09:17:54.345Z,60.81
2023-04-02T09:18:51.156Z,61.52
2023-04-02T09:19:51.108Z,59.66
2023-04-02T09:20:51.110Z,60.78
2023-04-02T09:21:51.118Z,61.05
2023-04-02T09:22:51.088Z,58.54
2023-04-02T09:23:51.068Z,57.97
2023-04-02T09:24:51.066Z,60.33
2023-04-02T09:26:02.915Z,60.50
2023-04-02T09:26:52.060Z,60.43
2023-04-02T09:27:51.032Z,60.13
2023-04-02T09:28:51.054Z,59.82
2023-04-02T09:29:51.013Z,57.79
2023-04-02T09:30:51.015Z,57.99
2023-04-02T09:31:51.033Z,59.28
2023-04-02T09:32:51.873Z,58.24
2023-04-02T09:33:50.975Z,57.84
2023-04-02T09:34:50.977Z,58.78
2023-04-02T09:35:50.971Z,59.14
2023-04-02T09:36:51.192Z,59.88
2023-04-02T09:37:51.724Z,59.27
2023-04-02T09:38:50.932Z,58.91
2023-04-02T09:39:51.171Z,58.33
2023-04-02T09:40:50.897Z,59.75
2023-04-02T09:42:02.802Z,59.14
2023-04-02T09:42:51.876Z,59.11
2023-04-02T09:43:50.920Z,59.39
2023-04-02T09:44:50.871Z,59.18
2023-04-02T09:45:50.838Z,61.52
2023-04-02T09:46:50.866Z,59.56
2023-04-02T09:47:50.849Z,60.30
2023-04-02T09:48:51.628Z,58.24
2023-04-02T09:49:50.807Z,59.30
2023-04-02T09:50:50.791Z,58.36
2023-04-02T09:51:50.782Z,56.59
2023-04-02T09:52:50.762Z,54.05
2023-04-02T09:53:50.782Z,54.44
2023-04-02T09:54:50.743Z,54.44
2023-04-02T09:55:50.738Z,55.12
2023-04-02T09:56:50.791Z,56.38
2023-04-02T09:57:50.720Z,56.56
2023-04-02T09:58:50.702Z,55.44
2023-04-02T09:59:50.879Z,54.61
2023-04-02T10:00:50.690Z,53.93
2023-04-02T10:01:50.694Z,54.71
2023-04-02T10:02:50.693Z,53.60
2023-04-02T10:03:50.662Z,54.18
2023-04-02T10:04:50.651Z,52.16
2023-04-02T10:05:50.630Z,54.08
2023-04-02T10:06:50.708Z,55.32
2023-04-02T10:07:50.612Z,56.33
2023-04-02T10:08:50.596Z,56.91
2023-04-02T10:09:50.583Z,54.56
2023-04-02T10:10:50.625Z,53.65
2023-04-02T10:11:50.565Z,55.57
2023-04-02T10:12:50.744Z,55.09
2023-04-02T10:13:50.539Z,56.10
2023-04-02T10:14:50.522Z,54.74
2023-04-02T10:15:50.921Z,55.17
2023-04-02T10:16:50.558Z,56.95
2023-04-02T10:17:50.518Z,56.64
2023-04-02T10:18:50.493Z,60.08
2023-04-02T10:19:50.727Z,57.65
2023-04-02T10:20:51.553Z,56.99
2023-04-02T10:21:50.452Z,57.43
2023-04-02T10:22:50.440Z,58.95
2023-04-02T10:23:50.440Z,57.98
2023-04-02T10:24:50.661Z,58.84
2023-04-02T10:25:50.420Z,57.55
2023-04-02T10:26:50.400Z,58.06
2023-04-02T10:27:50.393Z,55.12
2023-04-02T10:28:50.380Z,55.19
2023-04-02T10:29:50.368Z,53.96
2023-04-02T10:30:50.613Z,55.02
2023-04-02T10:31:50.383Z,53.19
2023-04-02T10:32:50.381Z,54.38
2023-04-02T10:33:50.335Z,52.61
2023-04-02T10:34:50.315Z,51.32
2023-04-02T10:35:50.343Z,54.41
2023-04-02T10:36:50.294Z,54.21
2023-04-02T10:37:50.285Z,55.40
2023-04-02T10:38:50.264Z,53.25
2023-04-02T10:39:50.255Z,55.04
2023-04-02T10:40:50.455Z,52.11
2023-04-02T10:41:50.237Z,52.74
2023-04-02T10:42:50.221Z,53.38
2023-04-02T10:43:50.220Z,52.82
2023-04-02T10:44:50.318Z,53.20
2023-04-02T10:45:50.230Z,51.66
2023-04-02T10:46:50.198Z,50.80
2023-04-02T10:47:50.208Z,50.62
2023-04-02T10:48:50.177Z,50.32
2023-04-02T10:49:50.171Z,49.74
2023-04-02T10:50:50.133Z,51.03
2023-04-02T10:51:50.148Z,52.09
2023-04-02T10:52:50.134Z,53.05
2023-04-02T10:53:50.123Z,53.50
2023-04-02T10:54:50.907Z,49.65
2023-04-02T10:55:50.087Z,49.71
2023-04-02T10:56:51.394Z,44.93
2023-04-02T10:57:50.069Z,45.87
2023-04-02T10:58:50.044Z,48.57
2023-04-02T10:59:50.051Z,46.64
2023-04-02T11:00:50.025Z,44.85
2023-04-02T11:01:50.049Z,46.86
2023-04-02T11:02:50.103Z,45.94
2023-04-02T11:03:50.135Z,46.28
2023-04-02T11:04:50.011Z,46.60
2023-04-02T11:05:49.980Z,46.45
2023-04-02T11:06:49.960Z,49.87
2023-04-02T11:07:49.971Z,49.16
2023-04-02T11:08:49.953Z,47.80
2023-04-02T11:09:49.941Z,50.37
2023-04-02T11:10:49.924Z,50.62
2023-04-02T11:11:49.914Z,49.72
2023-04-02T11:12:49.903Z,50.82
2023-04-02T11:13:49.897Z,49.97
2023-04-02T11:14:49.879Z,46.95
2023-04-02T11:15:49.900Z,52.80
2023-04-02T11:16:49.928Z,49.67
2023-04-02T11:17:49.913Z,50.27
2023-04-02T11:18:49.826Z,50.82
2023-04-02T11:19:49.830Z,51.08
2023-04-02T11:20:49.850Z,50.27
2023-04-02T11:21:58.742Z,51.73
2023-04-02T11:22:50.792Z,52.34
2023-04-02T11:23:49.795Z,51.76
2023-04-02T11:24:49.870Z,48.11
2023-04-02T11:25:49.772Z,45.92
2023-04-02T11:26:49.748Z,46.27
2023-04-02T11:27:49.745Z,47.61
2023-04-02T11:28:49.724Z,48.13
2023-04-02T11:29:49.735Z,43.42
2023-04-02T11:30:49.723Z,46.25
2023-04-02T11:31:49.819Z,45.54
2023-04-02T11:32:49.915Z,42.69
2023-04-02T11:33:50.222Z,46.56
2023-04-02T11:35:03.082Z,48.09
2023-04-02T11:35:50.671Z,46.62
2023-04-02T11:36:49.654Z,48.26
2023-04-02T11:37:49.740Z,49.04
2023-04-02T11:38:51.724Z,46.65
2023-04-02T11:39:49.643Z,46.25
2023-04-02T11:40:49.598Z,46.93
2023-04-02T11:41:49.600Z,49.98
2023-04-02T11:42:49.625Z,46.01
2023-04-02T11:43:49.580Z,46.54
2023-04-02T11:44:49.617Z,45.97
2023-04-02T11:45:53.337Z,45.65
2023-04-02T11:46:49.564Z,44.80
2023-04-02T11:47:49.710Z,42.72
2023-04-02T11:48:49.719Z,43.78
2023-04-02T11:49:49.511Z,46.17
2023-04-02T11:50:49.516Z,45.59
2023-04-02T11:51:50.841Z,46.29
2023-04-02T11:52:50.288Z,45.39
2023-04-02T11:53:49.489Z,46.09
2023-04-02T11:54:49.446Z,44.95
2023-04-02T11:55:49.448Z,46.91
2023-04-02T11:56:49.451Z,47.08
2023-04-02T11:57:49.427Z,45.57
2023-04-02T11:58:49.404Z,48.41
2023-04-02T11:59:49.411Z,50.02
2023-04-02T12:00:49.389Z,48.72
2023-04-02T12:01:49.432Z,50.90
2023-04-02T12:02:49.432Z,55.34
2023-04-02T12:03:49.358Z,52.09
2023-04-02T12:04:49.383Z,51.31
2023-04-02T12:05:49.333Z,53.47
2023-04-02T12:06:49.316Z,48.97
2023-04-02T12:07:49.322Z,49.51
2023-04-02T12:08:57.618Z,47.55
2023-04-02T12:09:50.295Z,48.83
2023-04-02T12:10:49.274Z,47.13
2023-04-02T12:11:51.049Z,51.43
2023-04-02T12:12:49.250Z,50.95
2023-04-02T12:13:49.247Z,52.47
2023-04-02T12:14:49.240Z,52.97
2023-04-02T12:15:49.418Z,52.16
2023-04-02T12:16:49.232Z,52.56
2023-04-02T12:17:49.252Z,54.28
2023-04-02T12:18:49.200Z,55.79
2023-04-02T12:19:49.188Z,52.87
2023-04-02T12:20:49.403Z,55.36
2023-04-02T12:21:49.169Z,54.38
2023-04-02T12:22:49.143Z,52.92
2023-04-02T12:23:49.140Z,52.67
2023-04-02T12:24:49.296Z,50.88
2023-04-02T12:25:49.132Z,48.86
2023-04-02T12:26:49.099Z,49.27
2023-04-02T12:27:49.104Z,48.36
2023-04-02T12:28:49.085Z,51.40
2023-04-02T12:29:49.076Z,51.35
2023-04-02T12:30:49.109Z,51.25
2023-04-02T12:31:49.069Z,50.22
2023-04-02T12:32:49.068Z,48.58
2023-04-02T12:33:49.039Z,49.82
2023-04-02T12:34:49.019Z,50.45
2023-04-02T12:35:49.093Z,48.75
2023-04-02T12:36:48.994Z,49.66
2023-04-02T12:37:48.993Z,48.85
2023-04-02T12:38:48.975Z,48.50
2023-04-02T12:39:48.990Z,49.73
2023-04-02T12:40:48.948Z,50.72
2023-04-02T12:41:48.968Z,49.61
2023-04-02T12:42:49.752Z,49.22
2023-04-02T12:43:49.902Z,51.12
2023-04-02T12:44:48.920Z,49.10
2023-04-02T12:45:48.956Z,51.57
2023-04-02T12:46:48.892Z,49.45
2023-04-02T12:47:49.717Z,50.34
2023-04-02T12:48:48.893Z,50.04
2023-04-02T12:49:48.871Z,49.05
2023-04-02T12:50:48.850Z,49.45
2023-04-02T12:51:49.657Z,50.26
2023-04-02T12:52:48.829Z,51.25